sensor_id;sensor_type;location;lat;lon;timestamp;temperature;humidity
30694;DHT22;17446;48.022;-1.740;2023-02-07T00:00:10;3.60;99.90
30694;DHT22;17446;48.022;-1.740;2023-02-07T00:02:36;3.40;99.90
30694;DHT22;17446;48.022;-1.740;2023-02-07T00:05:02;3.60;99.90
30694;DHT22;17446;48.022;-1.740;2023-02-07T00:07:28;3.40;99.90
30694;DHT22;17446;48.022;-1.740;2023-02-07T00:09:55;3.40;99.90
30694;DHT22;17446;48.022;-1.740;2023-02-07T00:12:21;3.40;99.90
30694;DHT22;17446;48.022;-1.740;2023-02-07T00:14:46;3.40;99.90
30694;DHT22;17446;48.022;-1.740;2023-02-07T00:17:12;3.50;99.90
30694;DHT22;17446;48.022;-1.740;2023-02-07T00:19:37;3.30;99.90
30694;DHT22;17446;48.022;-1.740;2023-02-07T00:22:03;3.40;99.90
30694;DHT22;17446;48.022;-1.740;2023-02-07T00:24:29;3.30;99.90
30694;DHT22;17446;48.022;-1.740;2023-02-07T00:26:54;3.20;99.90
30694;DHT22;17446;48.022;-1.740;2023-02-07T00:29:20;3.40;99.90
30694;DHT22;17446;48.022;-1.740;2023-02-07T00:31:47;3.30;99.90
30694;DHT22;17446;48.022;-1.740;2023-02-07T00:34:13;3.30;99.90
30694;DHT22;17446;48.022;-1.740;2023-02-07T00:36:40;3.30;99.90
30694;DHT22;17446;48.022;-1.740;2023-02-07T00:39:09;3.30;99.90
30694;DHT22;17446;48.022;-1.740;2023-02-07T00:41:36;3.20;99.90
30694;DHT22;17446;48.022;-1.740;2023-02-07T00:44:02;3.30;99.90
30694;DHT22;17446;48.022;-1.740;2023-02-07T00:46:28;3.10;99.90
30694;DHT22;17446;48.022;-1.740;2023-02-07T00:48:55;3.20;99.90
30694;DHT22;17446;48.022;-1.740;2023-02-07T00:51:21;3.20;99.90
30694;DHT22;17446;48.022;-1.740;2023-02-07T00:53:48;3.10;99.90
30694;DHT22;17446;48.022;-1.740;2023-02-07T00:56:14;3.10;99.90
30694;DHT22;17446;48.022;-1.740;2023-02-07T00:58:40;3.10;99.90
30694;DHT22;17446;48.022;-1.740;2023-02-07T01:01:06;3.10;99.90
30694;DHT22;17446;48.022;-1.740;2023-02-07T01:03:31;3.10;99.90
30694;DHT22;17446;48.022;-1.740;2023-02-07T01:05:57;3.10;99.90
30694;DHT22;17446;48.022;-1.740;2023-02-07T01:08:22;3.00;99.90
30694;DHT22;17446;48.022;-1.740;2023-02-07T01:10:48;3.00;99.90
30694;DHT22;17446;48.022;-1.740;2023-02-07T01:13:15;3.00;99.90
30694;DHT22;17446;48.022;-1.740;2023-02-07T01:15:43;3.00;99.90
30694;DHT22;17446;48.022;-1.740;2023-02-07T01:18:10;3.00;99.90
30694;DHT22;17446;48.022;-1.740;2023-02-07T01:20:36;3.20;99.90
30694;DHT22;17446;48.022;-1.740;2023-02-07T01:23:02;2.90;99.90
30694;DHT22;17446;48.022;-1.740;2023-02-07T01:25:29;2.90;99.90
30694;DHT22;17446;48.022;-1.740;2023-02-07T01:27:54;3.00;99.90
30694;DHT22;17446;48.022;-1.740;2023-02-07T01:30:20;3.00;99.90
30694;DHT22;17446;48.022;-1.740;2023-02-07T01:32:46;2.90;99.90
30694;DHT22;17446;48.022;-1.740;2023-02-07T01:35:12;2.90;99.90
30694;DHT22;17446;48.022;-1.740;2023-02-07T01:37:38;2.90;99.90
30694;DHT22;17446;48.022;-1.740;2023-02-07T01:40:04;3.00;99.90
30694;DHT22;17446;48.022;-1.740;2023-02-07T01:42:29;2.80;99.90
30694;DHT22;17446;48.022;-1.740;2023-02-07T01:45:00;2.80;99.90
30694;DHT22;17446;48.022;-1.740;2023-02-07T01:47:27;2.80;99.90
30694;DHT22;17446;48.022;-1.740;2023-02-07T01:49:55;2.80;99.90
30694;DHT22;17446;48.022;-1.740;2023-02-07T01:52:35;2.90;99.90
30694;DHT22;17446;48.022;-1.740;2023-02-07T01:55:06;2.80;99.90
30694;DHT22;17446;48.022;-1.740;2023-02-07T01:57:33;2.80;99.90
30694;DHT22;17446;48.022;-1.740;2023-02-07T01:59:59;2.80;99.90
30694;DHT22;17446;48.022;-1.740;2023-02-07T02:02:28;2.70;99.90
30694;DHT22;17446;48.022;-1.740;2023-02-07T02:04:55;2.70;99.90
30694;DHT22;17446;48.022;-1.740;2023-02-07T02:07:22;2.70;99.90
30694;DHT22;17446;48.022;-1.740;2023-02-07T02:09:48;2.80;99.90
30694;DHT22;17446;48.022;-1.740;2023-02-07T02:18:25;2.60;99.90
30694;DHT22;17446;48.022;-1.740;2023-02-07T02:21:56;2.60;99.90
30694;DHT22;17446;48.022;-1.740;2023-02-07T02:35:18;2.50;99.90
30694;DHT22;17446;48.022;-1.740;2023-02-07T02:41:17;2.50;99.90
30694;DHT22;17446;48.022;-1.740;2023-02-07T02:44:03;2.50;99.90
30694;DHT22;17446;48.022;-1.740;2023-02-07T02:46:36;2.50;99.90
30694;DHT22;17446;48.022;-1.740;2023-02-07T02:49:04;2.50;99.90
30694;DHT22;17446;48.022;-1.740;2023-02-07T02:51:31;2.40;99.90
30694;DHT22;17446;48.022;-1.740;2023-02-07T02:53:58;2.40;99.90
30694;DHT22;17446;48.022;-1.740;2023-02-07T03:13:27;2.30;99.90
30694;DHT22;17446;48.022;-1.740;2023-02-07T03:15:54;2.20;99.90
30694;DHT22;17446;48.022;-1.740;2023-02-07T03:18:36;2.30;99.90
30694;DHT22;17446;48.022;-1.740;2023-02-07T03:21:27;2.30;99.90
30694;DHT22;17446;48.022;-1.740;2023-02-07T03:23:59;2.20;99.90
30694;DHT22;17446;48.022;-1.740;2023-02-07T03:26:27;2.30;99.90
30694;DHT22;17446;48.022;-1.740;2023-02-07T03:28:54;2.20;99.90
30694;DHT22;17446;48.022;-1.740;2023-02-07T03:31:23;2.20;99.90
30694;DHT22;17446;48.022;-1.740;2023-02-07T03:33:53;2.20;99.90
30694;DHT22;17446;48.022;-1.740;2023-02-07T03:36:28;2.20;99.90
30694;DHT22;17446;48.022;-1.740;2023-02-07T03:38:55;2.20;99.90
30694;DHT22;17446;48.022;-1.740;2023-02-07T03:41:33;2.10;99.90
30694;DHT22;17446;48.022;-1.740;2023-02-07T03:44:00;2.10;99.90
30694;DHT22;17446;48.022;-1.740;2023-02-07T03:46:34;2.20;99.90
30694;DHT22;17446;48.022;-1.740;2023-02-07T03:49:01;2.20;99.90
30694;DHT22;17446;48.022;-1.740;2023-02-07T03:51:27;2.10;99.90
30694;DHT22;17446;48.022;-1.740;2023-02-07T03:53:52;2.20;99.90
30694;DHT22;17446;48.022;-1.740;2023-02-07T03:56:18;2.10;99.90
30694;DHT22;17446;48.022;-1.740;2023-02-07T03:58:43;2.20;99.90
30694;DHT22;17446;48.022;-1.740;2023-02-07T04:01:09;2.20;99.90
30694;DHT22;17446;48.022;-1.740;2023-02-07T04:03:35;2.00;99.90
30694;DHT22;17446;48.022;-1.740;2023-02-07T04:06:00;2.10;99.90
30694;DHT22;17446;48.022;-1.740;2023-02-07T04:08:26;2.10;99.90
30694;DHT22;17446;48.022;-1.740;2023-02-07T04:11:02;2.10;99.90
30694;DHT22;17446;48.022;-1.740;2023-02-07T04:13:29;2.00;99.90
30694;DHT22;17446;48.022;-1.740;2023-02-07T04:15:55;2.10;99.90
30694;DHT22;17446;48.022;-1.740;2023-02-07T04:18:20;2.00;99.90
30694;DHT22;17446;48.022;-1.740;2023-02-07T04:20:46;1.90;99.90
30694;DHT22;17446;48.022;-1.740;2023-02-07T04:23:12;2.20;99.90
30694;DHT22;17446;48.022;-1.740;2023-02-07T04:25:38;1.90;99.90
30694;DHT22;17446;48.022;-1.740;2023-02-07T04:28:04;2.00;99.90
30694;DHT22;17446;48.022;-1.740;2023-02-07T04:30:29;1.90;99.90
30694;DHT22;17446;48.022;-1.740;2023-02-07T04:32:56;2.00;99.90
30694;DHT22;17446;48.022;-1.740;2023-02-07T04:35:22;1.90;99.90
30694;DHT22;17446;48.022;-1.740;2023-02-07T04:37:47;1.90;99.90
30694;DHT22;17446;48.022;-1.740;2023-02-07T04:40:14;1.80;99.90
30694;DHT22;17446;48.022;-1.740;2023-02-07T04:42:40;1.80;99.90
30694;DHT22;17446;48.022;-1.740;2023-02-07T04:45:05;1.80;99.90
30694;DHT22;17446;48.022;-1.740;2023-02-07T04:47:31;1.80;99.90
30694;DHT22;17446;48.022;-1.740;2023-02-07T04:49:57;1.80;99.90
30694;DHT22;17446;48.022;-1.740;2023-02-07T04:52:22;1.80;99.90
30694;DHT22;17446;48.022;-1.740;2023-02-07T04:54:48;1.90;99.90
30694;DHT22;17446;48.022;-1.740;2023-02-07T04:57:15;1.90;99.90
30694;DHT22;17446;48.022;-1.740;2023-02-07T04:59:41;1.80;99.90
30694;DHT22;17446;48.022;-1.740;2023-02-07T05:02:06;1.90;99.90
30694;DHT22;17446;48.022;-1.740;2023-02-07T05:04:32;1.80;99.90
30694;DHT22;17446;48.022;-1.740;2023-02-07T05:06:58;1.80;99.90
30694;DHT22;17446;48.022;-1.740;2023-02-07T05:09:24;1.80;99.90
30694;DHT22;17446;48.022;-1.740;2023-02-07T05:11:49;1.80;99.90
30694;DHT22;17446;48.022;-1.740;2023-02-07T05:14:15;1.80;99.90
30694;DHT22;17446;48.022;-1.740;2023-02-07T05:16:41;1.70;99.90
30694;DHT22;17446;48.022;-1.740;2023-02-07T05:19:06;1.70;99.90
30694;DHT22;17446;48.022;-1.740;2023-02-07T05:21:32;1.70;99.90
30694;DHT22;17446;48.022;-1.740;2023-02-07T05:23:58;1.80;99.90
30694;DHT22;17446;48.022;-1.740;2023-02-07T05:26:23;1.70;99.90
30694;DHT22;17446;48.022;-1.740;2023-02-07T05:28:49;1.70;99.90
30694;DHT22;17446;48.022;-1.740;2023-02-07T05:31:14;1.70;99.90
30694;DHT22;17446;48.022;-1.740;2023-02-07T05:33:40;1.70;99.90
30694;DHT22;17446;48.022;-1.740;2023-02-07T05:36:06;1.80;99.90
30694;DHT22;17446;48.022;-1.740;2023-02-07T05:38:32;1.70;99.90
30694;DHT22;17446;48.022;-1.740;2023-02-07T05:40:57;1.70;99.90
30694;DHT22;17446;48.022;-1.740;2023-02-07T05:43:24;1.70;99.90
30694;DHT22;17446;48.022;-1.740;2023-02-07T05:45:49;1.70;99.90
30694;DHT22;17446;48.022;-1.740;2023-02-07T05:48:15;1.90;99.90
30694;DHT22;17446;48.022;-1.740;2023-02-07T05:50:41;1.60;99.90
30694;DHT22;17446;48.022;-1.740;2023-02-07T05:53:07;1.80;99.90
30694;DHT22;17446;48.022;-1.740;2023-02-07T05:55:33;1.70;99.90
30694;DHT22;17446;48.022;-1.740;2023-02-07T05:57:59;1.70;99.90
30694;DHT22;17446;48.022;-1.740;2023-02-07T06:00:25;1.70;99.90
30694;DHT22;17446;48.022;-1.740;2023-02-07T06:02:51;1.60;99.90
30694;DHT22;17446;48.022;-1.740;2023-02-07T06:05:18;1.70;99.90
30694;DHT22;17446;48.022;-1.740;2023-02-07T06:07:47;1.60;99.90
30694;DHT22;17446;48.022;-1.740;2023-02-07T06:10:14;1.50;99.90
30694;DHT22;17446;48.022;-1.740;2023-02-07T06:12:40;1.50;99.90
30694;DHT22;17446;48.022;-1.740;2023-02-07T06:15:06;1.50;99.90
30694;DHT22;17446;48.022;-1.740;2023-02-07T06:17:32;1.50;99.90
30694;DHT22;17446;48.022;-1.740;2023-02-07T06:19:57;1.50;99.90
30694;DHT22;17446;48.022;-1.740;2023-02-07T06:22:23;1.50;99.90
30694;DHT22;17446;48.022;-1.740;2023-02-07T06:24:48;1.50;99.90
30694;DHT22;17446;48.022;-1.740;2023-02-07T06:27:14;1.50;99.90
30694;DHT22;17446;48.022;-1.740;2023-02-07T06:29:40;1.50;99.90
30694;DHT22;17446;48.022;-1.740;2023-02-07T06:32:05;1.60;99.90
30694;DHT22;17446;48.022;-1.740;2023-02-07T06:34:31;1.50;99.90
30694;DHT22;17446;48.022;-1.740;2023-02-07T06:36:56;1.40;99.90
30694;DHT22;17446;48.022;-1.740;2023-02-07T06:39:22;1.40;99.90
30694;DHT22;17446;48.022;-1.740;2023-02-07T06:41:48;1.40;99.90
30694;DHT22;17446;48.022;-1.740;2023-02-07T06:44:13;1.50;99.90
30694;DHT22;17446;48.022;-1.740;2023-02-07T06:46:39;1.40;99.90
30694;DHT22;17446;48.022;-1.740;2023-02-07T06:49:05;1.60;99.90
30694;DHT22;17446;48.022;-1.740;2023-02-07T06:51:30;1.40;99.90
30694;DHT22;17446;48.022;-1.740;2023-02-07T06:53:56;1.40;99.90
30694;DHT22;17446;48.022;-1.740;2023-02-07T06:56:22;1.40;99.90
30694;DHT22;17446;48.022;-1.740;2023-02-07T06:58:47;1.40;99.90
30694;DHT22;17446;48.022;-1.740;2023-02-07T07:01:13;1.30;99.90
30694;DHT22;17446;48.022;-1.740;2023-02-07T07:03:44;1.50;99.90
30694;DHT22;17446;48.022;-1.740;2023-02-07T07:06:10;1.30;99.90
30694;DHT22;17446;48.022;-1.740;2023-02-07T07:08:36;1.30;99.90
30694;DHT22;17446;48.022;-1.740;2023-02-07T07:11:01;1.30;99.90
30694;DHT22;17446;48.022;-1.740;2023-02-07T07:13:27;1.40;99.90
30694;DHT22;17446;48.022;-1.740;2023-02-07T07:15:52;1.30;99.90
30694;DHT22;17446;48.022;-1.740;2023-02-07T07:18:18;1.30;99.90
30694;DHT22;17446;48.022;-1.740;2023-02-07T07:20:44;1.30;99.90
30694;DHT22;17446;48.022;-1.740;2023-02-07T07:23:09;1.30;99.90
30694;DHT22;17446;48.022;-1.740;2023-02-07T07:25:35;1.30;99.90
30694;DHT22;17446;48.022;-1.740;2023-02-07T07:28:01;1.30;99.90
30694;DHT22;17446;48.022;-1.740;2023-02-07T07:30:26;1.40;99.90
30694;DHT22;17446;48.022;-1.740;2023-02-07T07:32:52;1.30;99.90
30694;DHT22;17446;48.022;-1.740;2023-02-07T07:35:17;1.30;99.90
30694;DHT22;17446;48.022;-1.740;2023-02-07T07:37:43;1.30;99.90
30694;DHT22;17446;48.022;-1.740;2023-02-07T07:40:09;1.30;99.90
30694;DHT22;17446;48.022;-1.740;2023-02-07T07:42:35;1.30;99.90
30694;DHT22;17446;48.022;-1.740;2023-02-07T07:45:01;1.30;99.90
30694;DHT22;17446;48.022;-1.740;2023-02-07T07:47:27;1.30;99.90
30694;DHT22;17446;48.022;-1.740;2023-02-07T07:49:53;1.30;99.90
30694;DHT22;17446;48.022;-1.740;2023-02-07T07:52:19;1.40;99.90
30694;DHT22;17446;48.022;-1.740;2023-02-07T07:54:44;1.50;99.90
30694;DHT22;17446;48.022;-1.740;2023-02-07T07:57:10;1.50;99.90
30694;DHT22;17446;48.022;-1.740;2023-02-07T07:59:36;1.70;99.90
30694;DHT22;17446;48.022;-1.740;2023-02-07T08:02:01;1.80;99.90
30694;DHT22;17446;48.022;-1.740;2023-02-07T08:04:27;2.00;99.90
30694;DHT22;17446;48.022;-1.740;2023-02-07T08:06:53;2.00;99.90
30694;DHT22;17446;48.022;-1.740;2023-02-07T08:09:19;2.10;99.90
30694;DHT22;17446;48.022;-1.740;2023-02-07T08:11:45;2.30;99.90
30694;DHT22;17446;48.022;-1.740;2023-02-07T08:14:11;2.40;99.90
30694;DHT22;17446;48.022;-1.740;2023-02-07T08:16:36;2.30;99.90
30694;DHT22;17446;48.022;-1.740;2023-02-07T08:19:02;2.40;99.90
30694;DHT22;17446;48.022;-1.740;2023-02-07T08:21:27;2.50;99.90
30694;DHT22;17446;48.022;-1.740;2023-02-07T08:23:53;2.60;99.90
30694;DHT22;17446;48.022;-1.740;2023-02-07T08:26:19;2.70;99.90
30694;DHT22;17446;48.022;-1.740;2023-02-07T08:28:45;2.70;99.90
30694;DHT22;17446;48.022;-1.740;2023-02-07T08:31:11;2.80;99.90
30694;DHT22;17446;48.022;-1.740;2023-02-07T08:33:36;2.80;99.90
30694;DHT22;17446;48.022;-1.740;2023-02-07T08:36:03;2.90;99.90
30694;DHT22;17446;48.022;-1.740;2023-02-07T08:38:32;2.90;99.90
30694;DHT22;17446;48.022;-1.740;2023-02-07T08:40:58;3.00;99.90
30694;DHT22;17446;48.022;-1.740;2023-02-07T08:43:24;3.10;99.90
30694;DHT22;17446;48.022;-1.740;2023-02-07T08:45:49;3.10;99.90
30694;DHT22;17446;48.022;-1.740;2023-02-07T08:48:15;3.10;99.90
30694;DHT22;17446;48.022;-1.740;2023-02-07T08:50:41;3.20;99.90
30694;DHT22;17446;48.022;-1.740;2023-02-07T08:53:06;3.20;99.90
30694;DHT22;17446;48.022;-1.740;2023-02-07T08:55:32;3.30;99.90
30694;DHT22;17446;48.022;-1.740;2023-02-07T08:57:58;3.30;99.90
30694;DHT22;17446;48.022;-1.740;2023-02-07T09:00:23;3.40;99.90
30694;DHT22;17446;48.022;-1.740;2023-02-07T09:02:49;3.40;99.90
30694;DHT22;17446;48.022;-1.740;2023-02-07T09:05:15;3.50;99.90
30694;DHT22;17446;48.022;-1.740;2023-02-07T09:07:40;3.50;99.90
30694;DHT22;17446;48.022;-1.740;2023-02-07T09:10:07;3.60;99.90
30694;DHT22;17446;48.022;-1.740;2023-02-07T09:12:34;3.60;99.90
30694;DHT22;17446;48.022;-1.740;2023-02-07T09:15:00;3.70;99.90
30694;DHT22;17446;48.022;-1.740;2023-02-07T09:17:25;3.90;99.90
30694;DHT22;17446;48.022;-1.740;2023-02-07T09:19:51;3.80;99.90
30694;DHT22;17446;48.022;-1.740;2023-02-07T09:22:17;3.90;99.90
30694;DHT22;17446;48.022;-1.740;2023-02-07T09:24:42;3.90;99.90
30694;DHT22;17446;48.022;-1.740;2023-02-07T09:27:08;4.10;99.90
30694;DHT22;17446;48.022;-1.740;2023-02-07T09:29:34;4.00;99.90
30694;DHT22;17446;48.022;-1.740;2023-02-07T09:32:00;4.10;99.90
30694;DHT22;17446;48.022;-1.740;2023-02-07T09:34:26;4.10;99.90
30694;DHT22;17446;48.022;-1.740;2023-02-07T09:36:52;4.10;99.90
30694;DHT22;17446;48.022;-1.740;2023-02-07T09:39:18;4.10;99.90
30694;DHT22;17446;48.022;-1.740;2023-02-07T09:44:56;4.20;99.90
30694;DHT22;17446;48.022;-1.740;2023-02-07T09:47:25;4.30;99.90
30694;DHT22;17446;48.022;-1.740;2023-02-07T09:52:24;4.40;99.90
30694;DHT22;17446;48.022;-1.740;2023-02-07T09:54:54;4.50;99.90
30694;DHT22;17446;48.022;-1.740;2023-02-07T09:57:28;4.40;99.90
30694;DHT22;17446;48.022;-1.740;2023-02-07T10:00:05;4.50;99.90
30694;DHT22;17446;48.022;-1.740;2023-02-07T10:02:54;4.60;99.90
30694;DHT22;17446;48.022;-1.740;2023-02-07T10:05:26;4.70;99.90
30694;DHT22;17446;48.022;-1.740;2023-02-07T10:07:53;4.70;99.90
30694;DHT22;17446;48.022;-1.740;2023-02-07T10:10:27;4.80;99.90
30694;DHT22;17446;48.022;-1.740;2023-02-07T10:15:32;4.90;99.90
30694;DHT22;17446;48.022;-1.740;2023-02-07T10:31:38;5.20;99.90
30694;DHT22;17446;48.022;-1.740;2023-02-07T10:34:14;5.30;99.90
30694;DHT22;17446;48.022;-1.740;2023-02-07T10:36:46;5.40;99.90
30694;DHT22;17446;48.022;-1.740;2023-02-07T10:39:28;5.40;99.90
30694;DHT22;17446;48.022;-1.740;2023-02-07T10:41:56;5.40;99.90
30694;DHT22;17446;48.022;-1.740;2023-02-07T10:44:23;5.60;99.90
30694;DHT22;17446;48.022;-1.740;2023-02-07T10:46:59;5.60;99.90
30694;DHT22;17446;48.022;-1.740;2023-02-07T10:49:28;5.70;99.90
30694;DHT22;17446;48.022;-1.740;2023-02-07T10:52:02;5.70;99.90
30694;DHT22;17446;48.022;-1.740;2023-02-07T10:54:55;5.80;99.90
30694;DHT22;17446;48.022;-1.740;2023-02-07T10:57:21;5.80;99.90
30694;DHT22;17446;48.022;-1.740;2023-02-07T10:59:47;6.00;99.90
30694;DHT22;17446;48.022;-1.740;2023-02-07T11:07:24;6.10;99.90
30694;DHT22;17446;48.022;-1.740;2023-02-07T11:09:50;6.20;99.90
30694;DHT22;17446;48.022;-1.740;2023-02-07T11:12:23;6.30;99.90
30694;DHT22;17446;48.022;-1.740;2023-02-07T11:15:01;6.30;99.90
30694;DHT22;17446;48.022;-1.740;2023-02-07T11:17:28;6.30;99.90
30694;DHT22;17446;48.022;-1.740;2023-02-07T11:19:54;6.40;99.90
30694;DHT22;17446;48.022;-1.740;2023-02-07T11:22:21;6.40;99.90
30694;DHT22;17446;48.022;-1.740;2023-02-07T11:24:50;6.40;99.90
30694;DHT22;17446;48.022;-1.740;2023-02-07T11:27:19;6.50;99.90
30694;DHT22;17446;48.022;-1.740;2023-02-07T11:29:59;6.50;99.90
30694;DHT22;17446;48.022;-1.740;2023-02-07T11:32:29;6.60;99.90
30694;DHT22;17446;48.022;-1.740;2023-02-07T11:34:59;6.60;99.90
30694;DHT22;17446;48.022;-1.740;2023-02-07T11:37:34;6.60;99.90
30694;DHT22;17446;48.022;-1.740;2023-02-07T11:45:30;6.60;99.90
30694;DHT22;17446;48.022;-1.740;2023-02-07T11:47:57;6.60;99.90
30694;DHT22;17446;48.022;-1.740;2023-02-07T11:50:24;6.70;99.90
30694;DHT22;17446;48.022;-1.740;2023-02-07T11:52:57;6.70;99.90
30694;DHT22;17446;48.022;-1.740;2023-02-07T11:55:33;6.70;99.90
30694;DHT22;17446;48.022;-1.740;2023-02-07T11:58:06;6.70;99.90
30694;DHT22;17446;48.022;-1.740;2023-02-07T12:00:35;6.70;99.90
30694;DHT22;17446;48.022;-1.740;2023-02-07T12:03:21;6.80;99.90
30694;DHT22;17446;48.022;-1.740;2023-02-07T12:05:51;6.80;99.90
30694;DHT22;17446;48.022;-1.740;2023-02-07T12:08:20;6.80;99.90
30694;DHT22;17446;48.022;-1.740;2023-02-07T12:10:52;6.80;99.90
30694;DHT22;17446;48.022;-1.740;2023-02-07T12:18:47;6.90;99.90
30694;DHT22;17446;48.022;-1.740;2023-02-07T12:24:16;6.90;99.90
30694;DHT22;17446;48.022;-1.740;2023-02-07T12:27:16;6.90;99.90
30694;DHT22;17446;48.022;-1.740;2023-02-07T12:40:42;7.20;99.90
30694;DHT22;17446;48.022;-1.740;2023-02-07T12:54:30;7.40;99.90
30694;DHT22;17446;48.022;-1.740;2023-02-07T13:08:03;7.60;99.90
30694;DHT22;17446;48.022;-1.740;2023-02-07T13:15:57;7.70;99.90
30694;DHT22;17446;48.022;-1.740;2023-02-07T13:23:47;7.70;99.90
30694;DHT22;17446;48.022;-1.740;2023-02-07T13:26:21;7.80;99.90
30694;DHT22;17446;48.022;-1.740;2023-02-07T13:28:58;7.80;99.90
30694;DHT22;17446;48.022;-1.740;2023-02-07T13:31:56;7.80;99.90
30694;DHT22;17446;48.022;-1.740;2023-02-07T13:35:22;7.80;99.90
30694;DHT22;17446;48.022;-1.740;2023-02-07T13:37:35;7.90;99.90
30694;DHT22;17446;48.022;-1.740;2023-02-07T13:40:24;7.90;99.90
30694;DHT22;17446;48.022;-1.740;2023-02-07T13:43:13;7.90;99.90
30694;DHT22;17446;48.022;-1.740;2023-02-07T13:49:05;8.00;99.90
30694;DHT22;17446;48.022;-1.740;2023-02-07T13:51:53;8.00;99.70
30694;DHT22;17446;48.022;-1.740;2023-02-07T13:54:43;8.00;99.90
30694;DHT22;17446;48.022;-1.740;2023-02-07T14:00:18;8.10;99.90
30694;DHT22;17446;48.022;-1.740;2023-02-07T14:03:04;8.20;99.90
30694;DHT22;17446;48.022;-1.740;2023-02-07T14:05:34;8.20;99.90
30694;DHT22;17446;48.022;-1.740;2023-02-07T14:08:24;8.30;99.80
30694;DHT22;17446;48.022;-1.740;2023-02-07T14:10:51;8.30;99.90
30694;DHT22;17446;48.022;-1.740;2023-02-07T14:26:48;8.40;99.70
30694;DHT22;17446;48.022;-1.740;2023-02-07T14:31:50;8.50;99.90
30694;DHT22;17446;48.022;-1.740;2023-02-07T14:34:19;8.50;99.90
30694;DHT22;17446;48.022;-1.740;2023-02-07T14:36:45;8.60;99.70
30694;DHT22;17446;48.022;-1.740;2023-02-07T14:41:45;8.60;99.50
30694;DHT22;17446;48.022;-1.740;2023-02-07T14:44:27;8.60;99.20
30694;DHT22;17446;48.022;-1.740;2023-02-07T14:46:56;8.60;99.20
30694;DHT22;17446;48.022;-1.740;2023-02-07T14:52:07;8.60;99.10
30694;DHT22;17446;48.022;-1.740;2023-02-07T14:54:40;8.60;99.20
30694;DHT22;17446;48.022;-1.740;2023-02-07T15:00:30;8.70;99.40
30694;DHT22;17446;48.022;-1.740;2023-02-07T15:02:58;8.60;99.30
30694;DHT22;17446;48.022;-1.740;2023-02-07T15:05:34;8.60;99.40
30694;DHT22;17446;48.022;-1.740;2023-02-07T15:10:39;8.60;99.20
30694;DHT22;17446;48.022;-1.740;2023-02-07T15:13:36;8.60;99.30
30694;DHT22;17446;48.022;-1.740;2023-02-07T15:16:25;8.60;99.40
30694;DHT22;17446;48.022;-1.740;2023-02-07T15:21:33;8.50;99.30
30694;DHT22;17446;48.022;-1.740;2023-02-07T15:24:26;8.50;99.30
30694;DHT22;17446;48.022;-1.740;2023-02-07T15:26:55;8.40;98.90
30694;DHT22;17446;48.022;-1.740;2023-02-07T15:29:25;8.40;99.10
30694;DHT22;17446;48.022;-1.740;2023-02-07T15:31:50;8.40;99.20
30694;DHT22;17446;48.022;-1.740;2023-02-07T15:34:20;8.30;99.00
30694;DHT22;17446;48.022;-1.740;2023-02-07T15:36:49;8.30;99.30
30694;DHT22;17446;48.022;-1.740;2023-02-07T15:39:23;8.20;99.40
30694;DHT22;17446;48.022;-1.740;2023-02-07T15:41:51;8.20;99.60
30694;DHT22;17446;48.022;-1.740;2023-02-07T15:44:26;8.10;99.50
30694;DHT22;17446;48.022;-1.740;2023-02-07T15:46:54;8.10;99.50
30694;DHT22;17446;48.022;-1.740;2023-02-07T15:49:34;8.10;99.70
30694;DHT22;17446;48.022;-1.740;2023-02-07T15:54:26;8.00;99.90
30694;DHT22;17446;48.022;-1.740;2023-02-07T15:56:58;8.00;99.90
30694;DHT22;17446;48.022;-1.740;2023-02-07T15:59:29;7.90;99.80
30694;DHT22;17446;48.022;-1.740;2023-02-07T16:02:00;7.90;99.90
30694;DHT22;17446;48.022;-1.740;2023-02-07T16:04:28;7.90;99.90
30694;DHT22;17446;48.022;-1.740;2023-02-07T16:07:05;7.80;99.90
30694;DHT22;17446;48.022;-1.740;2023-02-07T16:09:38;7.80;99.90
30694;DHT22;17446;48.022;-1.740;2023-02-07T16:14:51;7.80;99.90
30694;DHT22;17446;48.022;-1.740;2023-02-07T16:17:24;7.80;99.90
30694;DHT22;17446;48.022;-1.740;2023-02-07T16:19:50;7.70;99.90
30694;DHT22;17446;48.022;-1.740;2023-02-07T16:22:21;7.70;99.90
30694;DHT22;17446;48.022;-1.740;2023-02-07T16:24:50;7.70;99.90
30694;DHT22;17446;48.022;-1.740;2023-02-07T16:27:22;7.60;99.90
30694;DHT22;17446;48.022;-1.740;2023-02-07T16:29:56;7.60;99.90
30694;DHT22;17446;48.022;-1.740;2023-02-07T16:32:25;7.50;99.90
30694;DHT22;17446;48.022;-1.740;2023-02-07T16:34:52;7.50;99.90
30694;DHT22;17446;48.022;-1.740;2023-02-07T16:37:17;7.50;99.90
30694;DHT22;17446;48.022;-1.740;2023-02-07T16:39:43;7.50;99.90
30694;DHT22;17446;48.022;-1.740;2023-02-07T16:42:13;7.50;99.90
30694;DHT22;17446;48.022;-1.740;2023-02-07T16:44:39;7.40;99.90
30694;DHT22;17446;48.022;-1.740;2023-02-07T16:47:05;7.30;99.90
30694;DHT22;17446;48.022;-1.740;2023-02-07T16:49:31;7.30;99.90
30694;DHT22;17446;48.022;-1.740;2023-02-07T16:51:58;7.30;99.90
30694;DHT22;17446;48.022;-1.740;2023-02-07T16:54:24;7.30;99.90
30694;DHT22;17446;48.022;-1.740;2023-02-07T16:56:53;7.20;99.90
30694;DHT22;17446;48.022;-1.740;2023-02-07T16:59:20;7.20;99.90
30694;DHT22;17446;48.022;-1.740;2023-02-07T17:01:47;7.10;99.90
30694;DHT22;17446;48.022;-1.740;2023-02-07T17:04:13;7.00;99.90
30694;DHT22;17446;48.022;-1.740;2023-02-07T17:06:40;7.00;99.90
30694;DHT22;17446;48.022;-1.740;2023-02-07T17:09:19;7.00;99.90
30694;DHT22;17446;48.022;-1.740;2023-02-07T17:11:45;7.00;99.90
30694;DHT22;17446;48.022;-1.740;2023-02-07T17:14:11;6.90;99.90
30694;DHT22;17446;48.022;-1.740;2023-02-07T17:16:38;6.90;99.90
30694;DHT22;17446;48.022;-1.740;2023-02-07T17:19:18;6.90;99.90
30694;DHT22;17446;48.022;-1.740;2023-02-07T17:21:44;6.80;99.90
30694;DHT22;17446;48.022;-1.740;2023-02-07T17:24:10;6.70;99.90
30694;DHT22;17446;48.022;-1.740;2023-02-07T17:26:37;6.70;99.90
30694;DHT22;17446;48.022;-1.740;2023-02-07T17:29:05;6.70;99.90
30694;DHT22;17446;48.022;-1.740;2023-02-07T17:31:31;6.60;99.90
30694;DHT22;17446;48.022;-1.740;2023-02-07T17:33:57;6.60;99.90
30694;DHT22;17446;48.022;-1.740;2023-02-07T17:36:23;6.50;99.90
30694;DHT22;17446;48.022;-1.740;2023-02-07T17:38:49;6.50;99.90
30694;DHT22;17446;48.022;-1.740;2023-02-07T17:41:15;6.40;99.90
30694;DHT22;17446;48.022;-1.740;2023-02-07T17:43:41;6.40;99.90
30694;DHT22;17446;48.022;-1.740;2023-02-07T17:46:22;6.40;99.90
30694;DHT22;17446;48.022;-1.740;2023-02-07T17:48:49;6.30;99.90
30694;DHT22;17446;48.022;-1.740;2023-02-07T17:51:23;6.30;99.90
30694;DHT22;17446;48.022;-1.740;2023-02-07T17:53:49;6.30;99.90
30694;DHT22;17446;48.022;-1.740;2023-02-07T17:56:33;6.30;99.90
30694;DHT22;17446;48.022;-1.740;2023-02-07T17:59:01;6.20;99.90
30694;DHT22;17446;48.022;-1.740;2023-02-07T18:01:28;6.20;99.90
30694;DHT22;17446;48.022;-1.740;2023-02-07T18:03:54;6.10;99.90
30694;DHT22;17446;48.022;-1.740;2023-02-07T18:06:26;6.10;99.90
30694;DHT22;17446;48.022;-1.740;2023-02-07T18:08:52;6.00;99.90
30694;DHT22;17446;48.022;-1.740;2023-02-07T18:11:18;6.10;99.90
30694;DHT22;17446;48.022;-1.740;2023-02-07T18:13:46;6.00;99.90
30694;DHT22;17446;48.022;-1.740;2023-02-07T18:16:14;6.00;99.90
30694;DHT22;17446;48.022;-1.740;2023-02-07T18:18:40;6.00;99.90
30694;DHT22;17446;48.022;-1.740;2023-02-07T18:21:05;5.90;99.90
30694;DHT22;17446;48.022;-1.740;2023-02-07T18:23:32;5.90;99.90